Portada
METAR-TAF:

METAR-TAF

Aeropuertos :

Tokachi-Obihiro, Japón

latitud: 42-54N, longitud: 143-10E, altitud: 84 m

Observación

El informe se hizo hace 11 horas y 36 minutos, a las 06:41 UTC
Viento 10 kt del noroeste
Temperatura -1°C
Humedad 54%
Presión 1025 hPa
Visibilidad 10 km o más
Escasas nubes a una altura de 4000 ft

METAR: RJCT 270641Z 32010KT 9999 FEW040 M01/M09 Q1025 RMK 1CU040 A3029 MAX WIND 17KT

Hora: 03:17 (18:17 UTC)


TAF: falta

Observaciones y pronósticos meteorológicos de más de 4000 aeropuertos (mensajes METAR y TAF).

Los puntos amarillos y rojos representan las estaciones disponibles.

Ponga el ratón en el punto deseado para ver el nombre de la estación.

Haga clic para ver las observaciones y los pronósticos meteorológicos.

Para cambiar el mapa : haga clic en los botones verdes con una cruz de color negro para hacer un zoom, en el botón verde con un guión para alejar o en las flechas verdes para mapas adyacentes.


METAR-TAF: